createdAt,value
2022-11-07T00:01:16.985Z,4.72
2022-11-07T00:03:43.869Z,3.63
2022-11-07T00:06:11.142Z,3.83
2022-11-07T00:08:37.895Z,3.97
2022-11-07T00:11:05.735Z,3.75
2022-11-07T00:13:33.232Z,3.45
2022-11-07T00:16:02.138Z,3.65
2022-11-07T00:18:29.371Z,4.15
2022-11-07T00:20:56.100Z,3.10
2022-11-07T00:23:22.771Z,3.85
2022-11-07T00:25:49.512Z,3.15
2022-11-07T00:28:16.188Z,3.17
2022-11-07T00:30:43.671Z,3.35
2022-11-07T00:33:10.398Z,3.63
2022-11-07T00:35:42.214Z,3.97
2022-11-07T00:38:09.047Z,3.17
2022-11-07T00:40:35.744Z,3.10
2022-11-07T00:43:02.403Z,3.25
2022-11-07T00:45:29.085Z,3.20
2022-11-07T00:47:55.717Z,3.35
2022-11-07T00:50:22.368Z,3.40
2022-11-07T00:52:49.049Z,2.83
2022-11-07T00:55:15.793Z,3.28
2022-11-07T00:57:42.436Z,3.25
2022-11-07T01:00:09.929Z,3.72
2022-11-07T01:02:36.667Z,3.40
2022-11-07T01:05:12.394Z,3.15
2022-11-07T01:07:39.920Z,3.10
2022-11-07T01:10:07.506Z,3.88
2022-11-07T01:12:35.543Z,3.58
2022-11-07T01:15:03.885Z,2.97
2022-11-07T01:17:30.647Z,2.78
2022-11-07T01:19:57.410Z,2.63
2022-11-07T01:22:24.053Z,3.17
2022-11-07T01:24:50.708Z,3.10
2022-11-07T01:27:17.374Z,2.75
2022-11-07T01:29:44.072Z,2.85
2022-11-07T01:32:10.710Z,3.05
2022-11-07T01:34:37.408Z,3.28
2022-11-07T01:37:04.062Z,2.78
2022-11-07T01:39:30.741Z,2.65
2022-11-07T01:41:57.745Z,2.50
2022-11-07T01:44:24.376Z,2.45
2022-11-07T01:46:54.984Z,2.15
2022-11-07T01:49:28.212Z,2.72
2022-11-07T01:52:00.036Z,2.70
2022-11-07T01:54:33.018Z,2.40
2022-11-07T01:57:06.663Z,2.45
2022-11-07T01:59:34.626Z,2.25
2022-11-07T02:02:01.506Z,2.22
2022-11-07T02:04:30.519Z,1.90
2022-11-07T02:07:02.892Z,2.38
2022-11-07T02:09:29.888Z,2.45
2022-11-07T02:12:00.852Z,2.10
2022-11-07T02:14:29.912Z,2.42
2022-11-07T02:16:56.944Z,2.38
2022-11-07T02:19:32.485Z,2.17
2022-11-07T02:22:13.208Z,2.58
2022-11-07T02:24:40.782Z,2.17
2022-11-07T02:27:11.728Z,2.30
2022-11-07T02:29:40.182Z,1.95
2022-11-07T02:32:09.507Z,2.42
2022-11-07T02:34:36.784Z,2.35
2022-11-07T02:37:22.317Z,2.28
2022-11-07T02:39:49.155Z,2.58
2022-11-07T02:42:16.331Z,2.42
2022-11-07T02:44:43.178Z,2.80
2022-11-07T02:47:09.963Z,2.72
2022-11-07T02:49:36.618Z,2.40
2022-11-07T02:52:03.410Z,2.75
2022-11-07T02:54:30.112Z,2.60
2022-11-07T02:56:56.761Z,2.72
2022-11-07T02:59:26.985Z,2.70
2022-11-07T03:01:54.318Z,2.65
2022-11-07T03:04:21.112Z,3.30
2022-11-07T03:06:47.753Z,3.22
2022-11-07T03:09:14.432Z,3.15
2022-11-07T03:11:41.089Z,2.85
2022-11-07T03:14:07.746Z,2.83
2022-11-07T03:16:34.426Z,3.00
2022-11-07T03:19:01.094Z,3.05
2022-11-07T03:21:27.815Z,2.95
2022-11-07T03:23:54.485Z,3.15
2022-11-07T03:26:21.216Z,2.75
2022-11-07T03:28:47.884Z,2.88
2022-11-07T03:31:14.572Z,3.28
2022-11-07T03:33:41.333Z,2.97
2022-11-07T03:36:08.437Z,2.58
2022-11-07T03:38:35.081Z,3.05
2022-11-07T03:41:01.757Z,2.65
2022-11-07T03:43:28.402Z,2.85
2022-11-07T03:45:55.070Z,3.17
2022-11-07T03:48:21.746Z,2.42
2022-11-07T03:50:48.380Z,2.67
2022-11-07T03:53:17.299Z,2.42
2022-11-07T03:58:14.401Z,2.10
2022-11-07T04:00:41.083Z,2.65
2022-11-07T04:03:07.715Z,1.92
2022-11-07T04:05:34.398Z,2.38
2022-11-07T04:08:01.083Z,2.17
2022-11-07T04:10:27.790Z,3.35
2022-11-07T04:13:13.467Z,2.50
2022-11-07T04:16:01.621Z,2.45
2022-11-07T04:18:28.366Z,2.55
2022-11-07T04:20:55.063Z,2.55
2022-11-07T04:23:21.746Z,3.00
2022-11-07T04:26:06.852Z,2.70
2022-11-07T04:28:33.581Z,3.33
2022-11-07T04:31:00.256Z,2.90
2022-11-07T04:33:26.936Z,2.90
2022-11-07T04:35:53.648Z,2.90
2022-11-07T04:38:20.283Z,2.85
2022-11-07T04:40:53.317Z,2.60
2022-11-07T04:43:20.144Z,3.10
2022-11-07T04:45:46.851Z,2.70
2022-11-07T04:48:13.546Z,3.00
2022-11-07T04:50:40.873Z,2.78
2022-11-07T04:53:07.601Z,2.42
2022-11-07T04:55:34.278Z,2.88
2022-11-07T04:58:00.926Z,2.40
2022-11-07T05:00:27.603Z,2.80
2022-11-07T05:02:54.313Z,3.08
2022-11-07T05:05:21.109Z,2.90
2022-11-07T05:07:48.262Z,2.63
2022-11-07T05:10:28.033Z,2.70
2022-11-07T05:12:56.379Z,2.58
2022-11-07T05:15:23.444Z,2.50
2022-11-07T05:17:50.173Z,2.30
2022-11-07T05:20:28.249Z,2.85
2022-11-07T05:23:15.830Z,2.78
2022-11-07T05:25:43.972Z,2.75
2022-11-07T05:28:12.530Z,2.72
2022-11-07T05:30:41.194Z,3.03
2022-11-07T05:33:12.681Z,2.63
2022-11-07T05:35:39.953Z,3.05
2022-11-07T05:38:06.993Z,3.00
2022-11-07T05:40:37.803Z,2.65
2022-11-07T05:43:06.955Z,2.80
2022-11-07T05:45:37.485Z,2.72
2022-11-07T05:48:07.743Z,2.80
2022-11-07T05:50:34.679Z,3.17
2022-11-07T05:53:01.909Z,2.17
2022-11-07T05:55:29.091Z,3.50
2022-11-07T05:57:55.966Z,3.30
2022-11-07T06:00:22.972Z,3.30
2022-11-07T06:02:57.687Z,2.75
2022-11-07T06:05:24.613Z,2.78
2022-11-07T06:07:51.381Z,2.78
2022-11-07T06:10:18.546Z,3.35
2022-11-07T06:12:45.489Z,2.78
2022-11-07T06:15:12.446Z,2.85
2022-11-07T06:17:39.342Z,2.72
2022-11-07T06:20:06.587Z,2.40
2022-11-07T06:22:33.222Z,2.92
2022-11-07T06:24:59.906Z,3.22
2022-11-07T06:27:26.577Z,3.17
2022-11-07T06:29:53.229Z,3.22
2022-11-07T06:32:19.953Z,2.92
2022-11-07T06:34:47.401Z,2.78
2022-11-07T06:37:14.078Z,3.90
2022-11-07T06:39:40.710Z,2.63
2022-11-07T06:42:07.392Z,2.63
2022-11-07T06:44:34.054Z,2.40
2022-11-07T06:47:00.802Z,3.15
2022-11-07T06:49:27.560Z,2.17
2022-11-07T06:51:54.326Z,2.75
2022-11-07T06:54:21.042Z,2.63
2022-11-07T06:56:47.702Z,2.95
2022-11-07T06:59:14.374Z,2.20
2022-11-07T07:01:41.134Z,2.58
2022-11-07T07:04:12.851Z,2.22
2022-11-07T07:06:39.888Z,2.60
2022-11-07T07:09:09.241Z,2.92
2022-11-07T07:11:37.439Z,2.05
2022-11-07T07:14:11.211Z,2.83
2022-11-07T07:16:38.620Z,2.17
2022-11-07T07:19:05.371Z,2.35
2022-11-07T07:21:33.860Z,2.47
2022-11-07T07:24:00.496Z,3.10
2022-11-07T07:26:28.411Z,2.35
2022-11-07T07:28:55.326Z,2.42
2022-11-07T07:31:25.478Z,2.22
2022-11-07T07:33:52.297Z,2.42
2022-11-07T07:36:21.174Z,2.50
2022-11-07T07:38:49.264Z,3.03
2022-11-07T07:41:16.708Z,2.80
2022-11-07T07:43:43.423Z,2.92
2022-11-07T07:46:15.318Z,2.70
2022-11-07T07:48:42.205Z,3.35
2022-11-07T07:51:08.984Z,2.55
2022-11-07T07:53:35.639Z,2.75
2022-11-07T07:56:06.806Z,3.15
2022-11-07T07:58:33.873Z,3.05
2022-11-07T08:01:01.019Z,2.55
2022-11-07T08:03:32.113Z,3.40
2022-11-07T08:06:06.892Z,3.15
2022-11-07T08:08:37.967Z,2.65
2022-11-07T08:11:08.531Z,2.83
2022-11-07T08:13:35.990Z,3.55
2022-11-07T08:16:04.808Z,3.38
2022-11-07T08:18:31.565Z,3.17
2022-11-07T08:20:58.353Z,3.03
2022-11-07T08:23:25.486Z,2.97
2022-11-07T08:25:54.346Z,2.70
2022-11-07T08:28:22.723Z,2.78
2022-11-07T08:31:03.809Z,2.95
2022-11-07T08:33:30.653Z,2.95
2022-11-07T08:36:02.492Z,2.83
2022-11-07T08:38:30.627Z,2.78
2022-11-07T08:40:57.917Z,2.88
2022-11-07T08:43:25.293Z,2.22
2022-11-07T08:45:53.657Z,2.88
2022-11-07T08:48:21.094Z,3.25
2022-11-07T08:50:56.034Z,2.35
2022-11-07T08:53:23.692Z,2.17
2022-11-07T08:55:50.403Z,2.25
2022-11-07T08:58:17.988Z,2.80
2022-11-07T09:00:44.842Z,1.85
2022-11-07T09:06:01.187Z,2.30
2022-11-07T09:08:28.263Z,2.80
2022-11-07T09:10:55.038Z,2.45
2022-11-07T09:13:21.852Z,2.28
2022-11-07T09:15:51.446Z,2.53
2022-11-07T09:18:19.546Z,2.78
2022-11-07T09:20:46.344Z,2.88
2022-11-07T09:23:13.361Z,2.15
2022-11-07T09:25:40.193Z,2.70
2022-11-07T09:28:06.865Z,2.80
2022-11-07T09:30:33.553Z,2.75
2022-11-07T09:33:00.595Z,2.65
2022-11-07T09:35:27.500Z,3.95
2022-11-07T09:37:54.274Z,3.47
2022-11-07T09:40:41.668Z,3.28
2022-11-07T09:43:23.354Z,3.65
2022-11-07T09:46:15.534Z,4.20
2022-11-07T09:48:47.849Z,3.53
2022-11-07T09:51:28.950Z,4.68
2022-11-07T09:54:03.629Z,3.58
2022-11-07T09:56:32.787Z,4.28
2022-11-07T09:59:09.715Z,4.30
2022-11-07T10:01:39.860Z,2.75
2022-11-07T10:07:04.165Z,3.70
2022-11-07T10:09:36.050Z,3.17
2022-11-07T10:12:05.460Z,3.90
2022-11-07T10:14:49.329Z,3.65
2022-11-07T10:17:28.830Z,3.17
2022-11-07T10:20:14.752Z,3.35
2022-11-07T10:23:06.231Z,2.83
2022-11-07T10:25:55.080Z,3.72
2022-11-07T10:28:22.097Z,2.83
2022-11-07T10:30:51.713Z,3.50
2022-11-07T10:33:34.855Z,2.80
2022-11-07T10:36:27.728Z,3.25
2022-11-07T10:41:27.044Z,3.33
2022-11-07T10:46:38.424Z,3.53
2022-11-07T10:49:20.165Z,2.97
2022-11-07T10:51:47.399Z,3.37
2022-11-07T10:54:26.703Z,3.35
2022-11-07T10:57:04.321Z,3.30
2022-11-07T10:59:36.354Z,2.58
2022-11-07T11:02:18.869Z,2.70
2022-11-07T11:04:54.304Z,2.60
2022-11-07T11:07:28.175Z,2.90
2022-11-07T11:09:57.747Z,2.72
2022-11-07T11:12:34.726Z,2.53
2022-11-07T11:15:04.813Z,2.80
2022-11-07T11:17:31.905Z,2.88
2022-11-07T11:19:58.624Z,3.08
2022-11-07T11:22:26.190Z,3.20
2022-11-07T11:25:28.758Z,3.33
2022-11-07T11:28:01.598Z,3.35
2022-11-07T11:30:30.767Z,3.03
2022-11-07T11:33:12.821Z,3.10
2022-11-07T11:36:00.742Z,3.13
2022-11-07T11:38:31.347Z,3.42
2022-11-07T11:41:19.963Z,3.80
2022-11-07T11:43:51.771Z,4.40
2022-11-07T11:46:31.292Z,3.25
2022-11-07T11:49:08.885Z,4.35
2022-11-07T11:51:51.667Z,3.88
2022-11-07T11:54:18.421Z,3.08
2022-11-07T11:56:56.867Z,3.65
2022-11-07T11:59:23.460Z,3.15
2022-11-07T12:02:25.577Z,3.38
2022-11-07T12:05:10.749Z,3.03
2022-11-07T12:08:06.622Z,3.28
2022-11-07T12:10:48.176Z,3.78
2022-11-07T12:13:20.946Z,3.00
2022-11-07T12:16:09.631Z,3.47
2022-11-07T12:18:56.456Z,2.55
2022-11-07T12:21:36.042Z,3.88
2022-11-07T12:24:02.693Z,3.10
2022-11-07T12:26:44.028Z,2.88
2022-11-07T12:29:32.331Z,3.20
2022-11-07T12:31:59.026Z,3.20
2022-11-07T12:34:41.825Z,3.47
2022-11-07T12:37:27.728Z,3.20
2022-11-07T12:40:16.789Z,3.22
2022-11-07T12:43:13.110Z,3.67
2022-11-07T12:45:45.648Z,3.97
2022-11-07T12:48:41.130Z,3.45
2022-11-07T12:51:34.138Z,3.15
2022-11-07T12:54:42.548Z,3.10
2022-11-07T12:57:15.270Z,2.60
2022-11-07T12:59:47.184Z,2.92
2022-11-07T13:02:38.390Z,2.78
2022-11-07T13:05:18.360Z,2.70
2022-11-07T13:08:25.455Z,2.50
2022-11-07T13:11:14.259Z,2.75
2022-11-07T13:14:05.143Z,2.80
2022-11-07T13:16:36.582Z,2.58
2022-11-07T13:19:33.760Z,2.97
2022-11-07T13:22:19.842Z,2.90
2022-11-07T13:25:09.358Z,2.30
2022-11-07T13:27:42.970Z,2.40
2022-11-07T13:30:15.214Z,2.38
2022-11-07T13:32:52.229Z,3.10
2022-11-07T13:35:38.684Z,2.40
2022-11-07T13:38:13.293Z,3.00
2022-11-07T13:40:48.668Z,2.45
2022-11-07T13:43:37.914Z,3.22
2022-11-07T13:46:08.554Z,3.40
2022-11-07T13:48:48.932Z,2.63
2022-11-07T13:51:26.993Z,2.60
2022-11-07T13:54:00.042Z,3.17
2022-11-07T13:56:37.015Z,2.45
2022-11-07T13:59:05.815Z,2.40
2022-11-07T14:01:44.415Z,3.15
2022-11-07T14:04:16.440Z,3.03
2022-11-07T14:06:44.047Z,2.60
2022-11-07T14:09:15.582Z,2.58
2022-11-07T14:11:42.352Z,3.00
2022-11-07T14:14:09.770Z,2.80
2022-11-07T14:16:37.847Z,2.67
2022-11-07T14:19:07.251Z,2.90
2022-11-07T14:21:36.650Z,3.15
2022-11-07T14:24:19.910Z,2.60
2022-11-07T14:26:57.794Z,2.83
2022-11-07T14:29:24.591Z,2.22
2022-11-07T14:31:51.274Z,2.35
2022-11-07T14:34:20.975Z,2.25
2022-11-07T14:36:59.901Z,1.98
2022-11-07T14:39:29.978Z,2.28
2022-11-07T14:41:58.709Z,2.30
2022-11-07T14:44:53.421Z,2.30
2022-11-07T14:47:28.135Z,2.33
2022-11-07T14:49:56.809Z,2.83
2022-11-07T14:52:41.750Z,1.80
2022-11-07T14:55:20.813Z,2.60
2022-11-07T14:57:48.057Z,2.88
2022-11-07T15:00:18.130Z,2.22
2022-11-07T15:02:47.170Z,2.25
2022-11-07T15:05:25.091Z,1.77
2022-11-07T15:07:52.186Z,2.38
2022-11-07T15:10:26.882Z,2.22
2022-11-07T15:13:02.543Z,2.17
2022-11-07T15:15:34.327Z,3.05
2022-11-07T15:18:06.578Z,1.70
2022-11-07T15:20:39.798Z,1.73
2022-11-07T15:23:12.696Z,2.45
2022-11-07T15:25:52.519Z,2.35
2022-11-07T15:28:26.874Z,2.40
2022-11-07T15:30:59.237Z,1.83
2022-11-07T15:35:57.404Z,2.25
2022-11-07T15:38:26.366Z,2.30
2022-11-07T15:40:53.919Z,1.70
2022-11-07T15:43:21.002Z,2.28
2022-11-07T15:45:49.280Z,2.10
2022-11-07T15:48:19.508Z,1.70
2022-11-07T15:50:48.706Z,1.88
2022-11-07T15:53:21.306Z,2.67
2022-11-07T15:55:48.687Z,3.03
2022-11-07T15:58:16.204Z,2.58
2022-11-07T16:00:43.126Z,2.60
2022-11-07T16:03:17.469Z,3.05
2022-11-07T16:05:46.544Z,2.33
2022-11-07T16:08:24.133Z,1.98
2022-11-07T16:10:57.775Z,2.33
2022-11-07T16:13:24.834Z,2.17
2022-11-07T16:15:55.860Z,2.65
2022-11-07T16:18:22.845Z,2.97
2022-11-07T16:20:50.429Z,2.75
2022-11-07T16:23:18.169Z,2.83
2022-11-07T16:25:46.945Z,2.92
2022-11-07T16:28:26.894Z,2.65
2022-11-07T16:30:53.781Z,2.65
2022-11-07T16:33:20.641Z,2.47
2022-11-07T16:35:49.202Z,3.30
2022-11-07T16:38:18.508Z,3.38
2022-11-07T16:40:45.366Z,3.40
2022-11-07T16:43:12.433Z,2.78
2022-11-07T16:45:45.175Z,2.33
2022-11-07T16:48:32.181Z,2.72
2022-11-07T16:50:58.905Z,2.97
2022-11-07T16:53:25.866Z,2.70
2022-11-07T16:56:00.734Z,3.15
2022-11-07T16:58:32.799Z,3.08
2022-11-07T17:01:05.092Z,2.85
2022-11-07T17:03:32.920Z,3.00
2022-11-07T17:06:02.206Z,3.17
2022-11-07T17:08:41.071Z,3.70
2022-11-07T17:11:08.032Z,3.15
2022-11-07T17:13:34.750Z,2.67
2022-11-07T17:16:01.543Z,2.70
2022-11-07T17:18:28.425Z,3.50
2022-11-07T17:20:55.591Z,2.92
2022-11-07T17:23:29.657Z,2.92
2022-11-07T17:26:02.183Z,2.15
2022-11-07T17:28:28.980Z,3.05
2022-11-07T17:30:55.627Z,2.65
2022-11-07T17:33:22.339Z,3.20
2022-11-07T17:35:53.983Z,3.20
2022-11-07T17:38:20.796Z,3.03
2022-11-07T17:40:47.603Z,2.92
2022-11-07T17:43:14.289Z,3.08
2022-11-07T17:45:41.081Z,2.90
2022-11-07T17:48:10.222Z,3.13
2022-11-07T17:50:37.030Z,3.72
2022-11-07T17:53:03.690Z,3.05
2022-11-07T17:55:30.377Z,3.72
2022-11-07T17:57:57.064Z,3.58
2022-11-07T18:00:24.696Z,3.70
2022-11-07T18:02:52.772Z,3.90
2022-11-07T18:05:22.297Z,4.05
2022-11-07T18:07:49.223Z,3.95
2022-11-07T18:10:16.617Z,3.15
2022-11-07T18:12:43.881Z,3.45
2022-11-07T18:15:13.936Z,3.60
2022-11-07T18:17:41.482Z,3.33
2022-11-07T18:20:09.557Z,4.03
2022-11-07T18:22:37.084Z,3.40
2022-11-07T18:25:08.643Z,3.08
2022-11-07T18:27:35.793Z,3.40
2022-11-07T18:30:03.569Z,3.22
2022-11-07T18:32:35.703Z,2.70
2022-11-07T18:35:04.704Z,3.25
2022-11-07T18:37:31.714Z,3.00
2022-11-07T18:39:58.413Z,3.15
2022-11-07T18:42:25.062Z,3.00
2022-11-07T18:44:52.010Z,2.75
2022-11-07T18:47:18.813Z,3.70
2022-11-07T18:49:45.461Z,3.03
2022-11-07T18:52:12.220Z,2.70
2022-11-07T18:54:39.020Z,3.58
2022-11-07T18:57:06.168Z,3.20
2022-11-07T18:59:32.877Z,3.10
2022-11-07T19:01:59.708Z,2.90
2022-11-07T19:04:26.452Z,2.67
2022-11-07T19:06:56.936Z,2.85
2022-11-07T19:09:29.186Z,3.38
2022-11-07T19:11:57.783Z,3.10
2022-11-07T19:14:25.672Z,3.70
2022-11-07T19:16:52.816Z,4.65
2022-11-07T19:19:19.471Z,4.78
2022-11-07T19:21:46.137Z,4.43
2022-11-07T19:24:13.110Z,4.63
2022-11-07T19:26:40.392Z,4.45
2022-11-07T19:29:11.125Z,3.22
2022-11-07T19:31:38.916Z,3.38
2022-11-07T19:34:06.065Z,3.83
2022-11-07T19:36:33.273Z,3.55
2022-11-07T19:39:00.141Z,3.15
2022-11-07T19:41:26.905Z,3.20
2022-11-07T19:43:53.626Z,2.63
2022-11-07T19:46:22.379Z,3.00
2022-11-07T19:48:50.245Z,2.70
2022-11-07T19:51:22.120Z,2.45
2022-11-07T19:53:54.694Z,2.78
2022-11-07T19:56:21.617Z,2.95
2022-11-07T19:58:48.301Z,3.05
2022-11-07T20:01:20.557Z,2.20
2022-11-07T20:06:21.514Z,2.70
2022-11-07T20:08:48.607Z,3.25
2022-11-07T20:11:17.137Z,3.17
2022-11-07T20:13:44.129Z,3.47
2022-11-07T20:16:11.200Z,2.90
2022-11-07T20:18:39.074Z,2.50
2022-11-07T20:21:14.878Z,2.60
2022-11-07T20:23:43.338Z,2.90
2022-11-07T20:26:12.872Z,3.00
2022-11-07T20:28:39.908Z,3.28
2022-11-07T20:31:08.398Z,3.17
2022-11-07T20:33:35.415Z,2.70
2022-11-07T20:36:05.457Z,3.22
2022-11-07T20:38:32.702Z,3.28
2022-11-07T20:40:59.552Z,2.90
2022-11-07T20:43:26.276Z,2.92
2022-11-07T20:45:52.986Z,2.85
2022-11-07T20:48:20.381Z,2.90
2022-11-07T20:50:48.370Z,3.17
2022-11-07T20:53:15.738Z,2.88
2022-11-07T20:55:44.496Z,2.90
2022-11-07T20:58:11.929Z,2.70
2022-11-07T21:00:40.754Z,2.75
2022-11-07T21:03:13.014Z,2.25
2022-11-07T21:05:39.698Z,2.25
2022-11-07T21:08:06.337Z,2.47
2022-11-07T21:10:33.032Z,2.70
2022-11-07T21:12:59.669Z,2.58
2022-11-07T21:15:26.345Z,2.20
2022-11-07T21:17:52.962Z,3.33
2022-11-07T21:20:19.630Z,2.50
2022-11-07T21:22:50.646Z,2.53
2022-11-07T21:25:17.436Z,2.55
2022-11-07T21:27:44.094Z,2.42
2022-11-07T21:30:12.597Z,2.10
2022-11-07T21:32:40.154Z,2.70
2022-11-07T21:35:07.187Z,2.53
2022-11-07T21:37:33.819Z,2.88
2022-11-07T21:40:00.540Z,3.20
2022-11-07T21:42:27.216Z,2.50
2022-11-07T21:44:53.920Z,2.78
2022-11-07T21:47:20.634Z,3.13
2022-11-07T21:49:50.098Z,3.20
2022-11-07T21:52:17.229Z,2.97
2022-11-07T21:54:44.736Z,2.30
2022-11-07T21:57:11.467Z,2.55
2022-11-07T21:59:38.218Z,2.80
2022-11-07T22:02:05.029Z,2.83
2022-11-07T22:04:31.839Z,2.45
2022-11-07T22:06:58.700Z,2.85
2022-11-07T22:09:25.563Z,3.22
2022-11-07T22:11:52.430Z,2.50
2022-11-07T22:14:22.143Z,2.45
2022-11-07T22:16:49.962Z,2.45
2022-11-07T22:19:18.712Z,2.97
2022-11-07T22:21:45.618Z,2.40
2022-11-07T22:24:12.499Z,2.50
2022-11-07T22:26:39.420Z,2.47
2022-11-07T22:29:06.278Z,2.65
2022-11-07T22:31:33.085Z,2.53
2022-11-07T22:34:01.029Z,2.38
2022-11-07T22:36:28.806Z,2.60
2022-11-07T22:38:57.434Z,2.45
2022-11-07T22:41:26.959Z,2.70
2022-11-07T22:43:54.893Z,2.40
2022-11-07T22:46:24.266Z,2.38
2022-11-07T22:48:52.328Z,2.35
2022-11-07T22:51:23.551Z,2.20
2022-11-07T22:54:02.251Z,2.83
2022-11-07T22:56:29.962Z,2.58
2022-11-07T22:58:56.828Z,2.33
2022-11-07T23:01:29.898Z,2.38
2022-11-07T23:03:57.242Z,2.10
2022-11-07T23:06:25.526Z,2.33
2022-11-07T23:08:53.011Z,2.25
2022-11-07T23:14:12.387Z,2.15
2022-11-07T23:16:43.531Z,2.00
2022-11-07T23:19:13.166Z,1.77
2022-11-07T23:21:40.111Z,2.90
2022-11-07T23:24:07.706Z,2.17
2022-11-07T23:26:34.997Z,2.28
2022-11-07T23:29:11.239Z,1.70
2022-11-07T23:31:43.461Z,1.77
2022-11-07T23:34:11.211Z,2.33
2022-11-07T23:36:40.647Z,2.50
2022-11-07T23:39:09.972Z,2.20
2022-11-07T23:41:37.000Z,2.10
2022-11-07T23:44:04.039Z,2.03
2022-11-07T23:46:49.958Z,2.25
2022-11-07T23:49:35.362Z,1.88
2022-11-07T23:52:02.333Z,2.00
2022-11-07T23:54:47.644Z,1.92
2022-11-07T23:57:14.854Z,2.10
